Time;durP1;ratioP1;P1;durP2;ratioP2;P2;SDS_P1;SDS_P2;PMS_P1;PMS_P2;Temp;Humidity;BMP_temperature;BMP_pressure;BME280_temperature;BME280_humidity;BME280_pressure;Samples;Min_cycle;Max_cycle;Signal;HPM_P1;HPM_P2
2021/04/12 00:03:46;;;;;;;6.48;4.65;;;;;;;8.82;58.93;99747.79;233384;1175;115836;-71
2021/04/12 00:09:03;;;;;;;9.55;6.20;;;;;;;8.71;60.02;99749.34;232762;1175;114523;-67
2021/04/12 00:14:26;;;;;;;5.60;4.07;;;;;;;8.63;60.02;99755.75;232740;1174;114254;-68
2021/04/12 00:19:38;;;;;;;9.70;6.93;;;;;;;8.54;60.47;99756.28;233823;1176;114530;-69
2021/04/12 00:25:09;;;;;;;8.20;5.55;;;;;;;8.46;60.56;99751.25;232492;1175;114940;-68
2021/04/12 00:30:32;;;;;;;7.30;6.20;;;;;;;8.41;60.90;99747.41;232768;1176;114744;-68
2021/04/12 00:35:41;;;;;;;10.90;5.60;;;;;;;8.36;61.55;99747.25;233591;1176;116468;-68
2021/04/12 00:40:58;;;;;;;6.15;5.60;;;;;;;8.31;61.35;99749.72;232624;1176;115417;-69
2021/04/12 00:46:26;;;;;;;9.90;7.25;;;;;;;8.32;61.21;99735.44;232708;1170;114530;-70
2021/04/12 00:51:38;;;;;;;8.60;6.48;;;;;;;8.33;62.29;99734.41;232494;1176;115225;-70
2021/04/12 00:56:54;;;;;;;8.18;6.90;;;;;;;8.28;61.95;99723.59;232708;1176;115575;-69
2021/04/12 01:02:35;;;;;;;13.55;9.40;;;;;;;8.23;62.83;99731.44;233216;1176;115059;-71
2021/04/12 01:08:13;;;;;;;12.47;6.73;;;;;;;8.20;63.44;99734.53;232823;1176;115478;-71
2021/04/12 01:13:34;;;;;;;11.45;7.35;;;;;;;8.14;62.28;99738.05;233147;1177;115664;-70
2021/04/12 01:18:50;;;;;;;5.95;4.90;;;;;;;8.05;63.61;99737.51;233293;1177;115592;-69
2021/04/12 01:24:34;;;;;;;7.30;6.55;;;;;;;7.95;62.89;99734.52;233689;1176;114913;-71
2021/04/12 01:30:16;;;;;;;12.13;8.10;;;;;;;7.92;63.71;99736.83;232720;1176;115472;-69
2021/04/12 01:35:26;;;;;;;10.15;7.90;;;;;;;7.91;64.00;99743.17;233739;1176;116150;-69
2021/04/12 01:40:34;;;;;;;9.30;8.05;;;;;;;7.88;63.44;99739.10;234953;1167;114903;-70
2021/04/12 01:45:49;;;;;;;11.43;8.30;;;;;;;7.86;63.72;99737.69;235151;1176;114852;-70
2021/04/12 01:51:24;;;;;;;10.10;7.15;;;;;;;7.81;64.12;99746.30;235230;1175;115699;-70
2021/04/12 01:56:35;;;;;;;10.28;7.78;;;;;;;7.75;64.17;99747.16;235310;1175;115774;-69
2021/04/12 02:02:01;;;;;;;10.03;7.10;;;;;;;7.73;63.96;99744.72;233274;1175;115052;-68
2021/04/12 02:07:33;;;;;;;11.17;9.43;;;;;;;7.76;64.84;99741.63;233315;1176;116317;-67
2021/04/12 02:12:58;;;;;;;11.50;9.65;;;;;;;7.72;64.77;99732.48;232742;1176;116686;-66
2021/04/12 02:18:11;;;;;;;9.77;7.30;;;;;;;7.66;65.13;99735.17;233130;1176;114877;-65
2021/04/12 02:23:52;;;;;;;13.13;7.13;;;;;;;7.53;64.86;99736.10;232521;1176;115322;-68
2021/04/12 02:29:20;;;;;;;8.90;7.87;;;;;;;7.35;65.43;99731.51;232640;1176;115039;-68
2021/04/12 02:34:41;;;;;;;7.03;5.93;;;;;;;7.24;65.93;99728.74;232711;1174;114548;-69
2021/04/12 02:40:29;;;;;;;11.80;7.93;;;;;;;7.17;65.82;99735.91;233578;1175;115689;-68
2021/04/12 02:45:42;;;;;;;11.25;9.85;;;;;;;7.15;65.74;99730.83;232854;1176;115518;-68
2021/04/12 02:51:35;;;;;;;11.60;9.27;;;;;;;7.18;66.00;99722.45;232839;1176;115610;-69
2021/04/12 02:57:02;;;;;;;10.00;7.10;;;;;;;7.15;65.63;99733.47;232515;1175;115594;-69
2021/04/12 03:02:42;;;;;;;8.20;6.13;;;;;;;7.00;66.56;99727.66;233758;1175;115246;-69
2021/04/12 03:08:07;;;;;;;6.97;5.90;;;;;;;6.90;66.16;99722.80;232952;1176;115204;-69
2021/04/12 03:13:48;;;;;;;11.13;9.27;;;;;;;6.87;66.04;99728.52;232904;1176;114796;-69
2021/04/12 03:19:15;;;;;;;10.13;8.78;;;;;;;6.85;66.48;99730.56;233124;1176;115516;-67
2021/04/12 03:24:28;;;;;;;11.35;9.30;;;;;;;6.83;66.65;99729.96;233252;1175;114640;-68
2021/04/12 03:29:35;;;;;;;8.15;7.00;;;;;;;6.76;66.40;99732.63;233224;1174;115194;-68
2021/04/12 03:35:04;;;;;;;8.20;6.70;;;;;;;6.68;66.78;99719.64;232679;1175;114921;-69
2021/04/12 03:40:24;;;;;;;8.45;6.20;;;;;;;6.57;66.93;99727.41;234577;1175;114292;-69
2021/04/12 03:45:55;;;;;;;11.53;9.73;;;;;;;6.51;67.56;99725.59;234344;1176;115237;-68
2021/04/12 03:51:36;;;;;;;11.10;9.17;;;;;;;6.50;67.49;99722.13;232962;1176;115042;-67
2021/04/12 03:57:04;;;;;;;9.08;7.00;;;;;;;6.47;67.83;99722.55;235014;1176;115306;-72
2021/04/12 04:02:14;;;;;;;14.90;7.67;;;;;;;6.44;68.26;99717.66;234100;1176;115153;-70
2021/04/12 04:07:46;;;;;;;11.05;7.75;;;;;;;6.42;68.30;99717.88;232834;1168;115420;-70
2021/04/12 04:13:26;;;;;;;15.00;10.90;;;;;;;6.51;68.10;99728.24;232505;1176;114996;-68
2021/04/12 04:19:05;;;;;;;13.30;9.00;;;;;;;6.64;68.19;99728.21;233309;1176;114625;-68
2021/04/12 04:25:06;;;;;;;7.80;7.10;;;;;;;6.74;68.33;99725.91;232542;1174;115493;-68
2021/04/12 04:30:48;;;;;;;6.00;5.40;;;;;;;6.83;67.98;99731.80;232539;1172;117620;-68
2021/04/12 04:36:29;;;;;;;11.35;10.30;;;;;;;6.89;68.15;99723.83;233420;1174;115054;-67
2021/04/12 04:41:43;;;;;;;15.80;10.50;;;;;;;7.11;67.96;99732.27;233411;1175;115529;-68
2021/04/12 04:47:26;;;;;;;12.95;9.75;;;;;;;7.27;68.24;99728.32;233415;1176;114965;-68
2021/04/12 04:52:44;;;;;;;12.08;6.50;;;;;;;7.35;68.26;99722.74;233280;1176;116036;-68
2021/04/12 04:58:01;;;;;;;16.60;9.87;;;;;;;7.47;68.41;99728.19;233447;1176;114954;-68
2021/04/12 05:03:35;;;;;;;13.55;8.45;;;;;;;7.66;68.06;99728.03;232564;1171;118620;-67
2021/04/12 05:09:04;;;;;;;17.90;13.43;;;;;;;7.93;68.24;99749.08;232918;1174;115069;-67
2021/04/12 05:14:53;;;;;;;17.40;13.50;;;;;;;8.23;68.04;99750.03;232708;1176;115895;-67
2021/04/12 05:20:19;;;;;;;16.13;8.70;;;;;;;9.33;66.07;99753.45;233284;1176;115013;-67
2021/04/12 05:25:41;;;;;;;9.50;8.57;;;;;;;9.68;66.29;99761.54;232886;1175;115323;-66
2021/04/12 05:30:55;;;;;;;14.70;10.60;;;;;;;9.74;66.17;99759.82;233699;1175;115308;-66
2021/04/12 05:36:08;;;;;;;10.83;9.08;;;;;;;9.79;65.32;99760.73;233063;1174;115137;-67
2021/04/12 05:41:47;;;;;;;13.93;8.43;;;;;;;9.85;64.61;99761.67;234090;1174;115120;-67
2021/04/12 05:47:43;;;;;;;13.75;10.00;;;;;;;9.97;65.14;99761.70;233972;1174;115290;-67
2021/04/12 05:53:17;;;;;;;16.30;9.23;;;;;;;10.07;64.36;99767.28;233315;1174;115824;-67
2021/04/12 05:58:29;;;;;;;13.20;11.70;;;;;;;10.25;63.79;99769.86;235058;1174;115550;-67
2021/04/12 06:03:55;;;;;;;19.67;10.00;;;;;;;10.41;63.86;99763.00;235238;1176;116676;-67
2021/04/12 06:09:02;;;;;;;9.30;8.05;;;;;;;10.57;64.18;99772.16;234451;1174;115783;-66
2021/04/12 06:14:21;;;;;;;14.57;8.80;;;;;;;10.69;63.44;99767.63;235035;1175;114982;-66
2021/04/12 06:19:34;;;;;;;11.20;7.83;;;;;;;10.81;63.50;99773.73;233443;1174;114771;-65
2021/04/12 06:25:05;;;;;;;13.28;9.50;;;;;;;10.94;63.32;99778.82;234257;1174;115283;-65
2021/04/12 06:30:34;;;;;;;8.80;6.18;;;;;;;11.09;63.28;99764.96;233975;1174;115642;-65
2021/04/12 06:36:11;;;;;;;8.33;6.73;;;;;;;11.28;62.54;99778.95;232509;1174;115794;-69
2021/04/12 06:41:32;;;;;;;7.30;5.00;;;;;;;11.44;62.26;99778.98;232319;1175;115568;-69
2021/04/12 06:47:12;;;;;;;8.53;5.98;;;;;;;11.60;61.78;99782.75;232298;1175;115840;-70
2021/04/12 06:52:33;;;;;;;11.85;6.53;;;;;;;12.10;61.30;99777.47;233680;1174;114772;-68
2021/04/12 06:58:10;;;;;;;8.80;5.43;;;;;;;12.63;60.78;99783.30;233252;1176;115493;-68
2021/04/12 07:03:38;;;;;;;7.97;6.70;;;;;;;12.95;60.27;99784.26;232498;1175;139171;-68
2021/04/12 07:09:14;;;;;;;8.83;5.20;;;;;;;13.05;59.39;99784.39;233529;1174;115192;-69
2021/04/12 07:14:43;;;;;;;12.33;5.63;;;;;;;13.55;59.03;99783.35;232634;1176;114912;-68
2021/04/12 07:20:23;;;;;;;9.13;5.00;;;;;;;14.69;57.73;99777.53;233232;1174;116641;-69
2021/04/12 07:26:00;;;;;;;7.97;5.33;;;;;;;15.79;57.21;99791.63;232536;1174;115033;-68
2021/04/12 07:31:32;;;;;;;6.40;5.10;;;;;;;16.50;55.51;99794.28;233520;1175;115120;-69
2021/04/12 07:37:13;;;;;;;8.45;5.05;;;;;;;16.95;54.51;99787.17;232414;1174;116020;-70
2021/04/12 07:42:38;;;;;;;7.30;5.10;;;;;;;17.23;53.43;99798.36;233528;1176;115986;-68
2021/04/12 07:48:02;;;;;;;7.28;5.20;;;;;;;17.30;52.43;99794.30;232841;1175;115375;-69
2021/04/12 07:53:44;;;;;;;9.73;5.30;;;;;;;17.37;52.26;99807.47;232569;1174;115663;-68
2021/04/12 07:58:59;;;;;;;9.25;6.25;;;;;;;17.41;50.73;99811.22;233175;1174;115131;-68
2021/04/12 08:04:33;;;;;;;7.48;4.75;;;;;;;17.28;50.91;99814.52;234316;1174;116662;-68
2021/04/12 08:09:54;;;;;;;5.60;4.80;;;;;;;16.97;49.86;99822.71;234506;1175;115275;-69
2021/04/12 08:15:20;;;;;;;9.33;5.38;;;;;;;16.66;49.75;99816.61;235132;1174;115866;-68
2021/04/12 08:20:29;;;;;;;10.95;5.00;;;;;;;16.39;49.66;99822.27;233824;1176;115436;-69
2021/04/12 08:26:09;;;;;;;5.85;4.25;;;;;;;16.52;50.14;99831.66;235057;1174;115652;-70
2021/04/12 08:31:28;;;;;;;3.93;3.63;;;;;;;16.72;49.59;99828.17;233910;1177;115230;-68
2021/04/12 08:36:51;;;;;;;8.35;5.60;;;;;;;16.87;49.46;99841.58;234199;1175;116388;-67
2021/04/12 08:42:13;;;;;;;9.70;5.70;;;;;;;17.02;49.45;99846.94;232683;1174;116748;-68
2021/04/12 08:48:12;;;;;;;7.75;5.13;;;;;;;17.15;49.06;99840.95;233445;1174;116151;-67
2021/04/12 08:53:48;;;;;;;9.60;6.30;;;;;;;17.22;48.95;99839.86;232464;1176;115568;-68
2021/04/12 08:58:57;;;;;;;7.40;5.83;;;;;;;17.39;49.05;99849.22;233944;1175;115774;-68
2021/04/12 09:04:20;;;;;;;8.53;7.07;;;;;;;17.65;49.18;99854.52;233177;1174;115458;-67
2021/04/12 09:10:01;;;;;;;19.40;6.78;;;;;;;17.65;48.65;99860.70;233292;1174;115627;-67
2021/04/12 09:15:39;;;;;;;10.10;6.43;;;;;;;17.37;47.73;99856.78;232981;1176;116391;-69
2021/04/12 09:21:05;;;;;;;7.20;5.98;;;;;;;17.37;47.94;99864.05;233068;1174;117381;-69
2021/04/12 09:26:27;;;;;;;8.67;5.97;;;;;;;17.64;48.13;99867.16;233096;1174;116789;-69
2021/04/12 09:31:41;;;;;;;8.13;6.70;;;;;;;17.86;47.57;99866.78;232470;1176;116392;-69
2021/04/12 09:37:20;;;;;;;11.13;7.67;;;;;;;18.07;47.84;99868.24;232666;1177;115464;-73
2021/04/12 09:42:46;;;;;;;7.97;6.63;;;;;;;18.30;47.87;99864.05;232677;1174;116592;-68
2021/04/12 09:48:14;;;;;;;10.05;6.83;;;;;;;18.49;47.43;99870.34;232488;1177;115737;-68
2021/04/12 09:53:45;;;;;;;8.67;5.93;;;;;;;18.35;46.15;99874.77;233405;1170;116613;-68
2021/04/12 09:58:55;;;;;;;5.80;4.70;;;;;;;18.12;46.54;99892.48;232363;1177;117984;-68
2021/04/12 10:04:18;;;;;;;8.73;7.03;;;;;;;18.08;46.08;99885.23;232351;1176;115959;-67
2021/04/12 10:09:31;;;;;;;8.85;7.23;;;;;;;18.13;46.04;99887.91;234512;1174;116043;-68
2021/04/12 10:14:47;;;;;;;9.75;8.45;;;;;;;17.97;46.00;99894.50;233436;1175;116897;-70
2021/04/12 10:19:55;;;;;;;17.03;9.33;;;;;;;17.92;46.73;99906.13;235133;1176;116904;-69
2021/04/12 10:25:06;;;;;;;13.90;10.93;;;;;;;18.15;46.36;99899.22;234231;1175;116678;-69
2021/04/12 10:30:16;;;;;;;14.30;10.98;;;;;;;18.39;46.26;99908.20;235112;1176;139121;-70
2021/04/12 10:35:30;;;;;;;12.20;10.90;;;;;;;18.20;46.49;99904.59;233780;1175;117493;-67
2021/04/12 10:40:39;;;;;;;13.53;12.23;;;;;;;18.32;46.52;99904.24;232587;1176;116806;-68
2021/04/12 10:46:30;;;;;;;18.33;16.40;;;;;;;18.12;46.40;99929.45;233390;1175;116548;-69
2021/04/12 10:51:41;;;;;;;17.60;15.53;;;;;;;17.89;46.95;99940.92;232740;1175;117760;-71
2021/04/12 10:56:51;;;;;;;15.83;14.05;;;;;;;17.60;46.97;99944.27;232266;1174;117076;-69
2021/04/12 11:02:00;;;;;;;19.93;17.95;;;;;;;17.11;46.96;99952.23;233228;1174;116893;-71
2021/04/12 11:07:22;;;;;;;23.93;18.80;;;;;;;16.53;47.73;99959.75;232416;1175;116803;-69
2021/04/12 11:12:52;;;;;;;16.47;14.40;;;;;;;16.01;48.41;99965.31;232587;1175;116949;-68
2021/04/12 11:18:26;;;;;;;18.35;15.50;;;;;;;15.82;49.36;99967.69;232397;1175;118016;-66
2021/04/12 11:23:33;;;;;;;20.33;15.78;;;;;;;15.72;49.92;99979.20;232497;1174;116643;-68
2021/04/12 11:28:45;;;;;;;16.90;14.80;;;;;;;15.57;49.93;99978.33;232986;1176;118597;-68
2021/04/12 11:34:12;;;;;;;19.45;15.20;;;;;;;15.73;50.31;99993.44;232615;1175;117940;-66
2021/04/12 11:39:25;;;;;;;15.77;13.13;;;;;;;15.72;49.85;99989.14;232486;1174;116313;-67
2021/04/12 11:44:49;;;;;;;22.15;15.40;;;;;;;15.28;50.29;100004.73;233453;1174;115826;-66
2021/04/12 11:50:11;;;;;;;18.55;14.90;;;;;;;14.92;50.08;100009.03;232759;1174;116152;-70
2021/04/12 11:55:22;;;;;;;18.40;15.30;;;;;;;14.65;50.68;100009.88;233932;1176;115244;-70
2021/04/12 12:00:51;;;;;;;16.80;15.05;;;;;;;14.58;51.54;100013.83;233398;1174;115565;-67
2021/04/12 12:06:04;;;;;;;13.03;10.60;;;;;;;14.61;51.74;100016.01;234104;1175;117674;-71
2021/04/12 12:11:38;;;;;;;20.78;15.93;;;;;;;14.67;51.64;100015.81;234914;1176;115733;-70
2021/04/12 12:16:44;;;;;;;21.93;15.70;;;;;;;14.73;51.24;100016.64;234881;1174;115773;-68
2021/04/12 12:22:06;;;;;;;17.17;13.17;;;;;;;14.56;51.46;100019.45;235018;1174;115624;-68
2021/04/12 12:27:32;;;;;;;22.18;16.15;;;;;;;14.39;52.02;100019.50;233500;1168;115391;-69
2021/04/12 12:33:02;;;;;;;15.00;11.30;;;;;;;14.32;52.24;100029.64;235036;1174;115445;-71
2021/04/12 12:38:37;;;;;;;22.13;16.03;;;;;;;14.09;52.51;100027.21;233498;1170;118497;-70
2021/04/12 12:43:42;;;;;;;17.60;14.18;;;;;;;13.76;52.32;100034.31;232508;1174;115967;-67
2021/04/12 12:48:53;;;;;;;14.43;11.90;;;;;;;13.47;52.78;100054.27;233426;1174;115518;-71
2021/04/12 12:54:28;;;;;;;14.95;13.20;;;;;;;13.34;53.51;100060.79;232872;1174;116128;-68
2021/04/12 12:59:39;;;;;;;15.65;13.08;;;;;;;13.33;53.64;100058.36;233258;1174;115993;-69
2021/04/12 13:04:52;;;;;;;14.88;12.98;;;;;;;13.17;53.33;100070.67;232440;1174;116462;-70
2021/04/12 13:10:02;;;;;;;11.27;8.97;;;;;;;12.91;53.69;100065.93;233186;1174;115083;-70
2021/04/12 13:15:25;;;;;;;18.70;10.40;;;;;;;12.74;53.83;100081.97;232336;1174;115671;-70
2021/04/12 13:20:38;;;;;;;18.33;12.87;;;;;;;12.50;54.44;100085.81;233283;1171;115886;-69
2021/04/12 13:25:52;;;;;;;13.60;10.58;;;;;;;12.28;54.77;100094.46;233129;1175;115176;-66
2021/04/12 13:31:12;;;;;;;4.60;4.18;;;;;;;12.05;54.90;100095.34;233765;1174;116584;-65
2021/04/12 13:36:30;;;;;;;17.50;11.30;;;;;;;11.70;55.08;100105.22;233205;1174;115402;-66
2021/04/12 13:41:46;;;;;;;10.13;8.03;;;;;;;11.45;55.60;100114.27;232439;1174;115658;-66
2021/04/12 13:46:59;;;;;;;14.53;8.37;;;;;;;11.29;56.19;100114.16;233747;1174;117028;-66
2021/04/12 13:52:08;;;;;;;11.63;7.70;;;;;;;11.16;56.30;100119.69;233064;1174;116281;-66
2021/04/12 13:57:33;;;;;;;16.20;8.95;;;;;;;10.96;56.34;100128.81;234213;1176;115424;-67
2021/04/12 14:02:48;;;;;;;12.25;7.95;;;;;;;10.71;57.15;100136.11;232889;1174;117724;-69
2021/04/12 14:07:59;;;;;;;21.58;11.08;;;;;;;10.38;57.47;100132.05;232285;1174;116387;-68
2021/04/12 14:13:21;;;;;;;16.33;8.57;;;;;;;10.21;57.61;100138.19;234151;1176;115793;-66
2021/04/12 14:18:44;;;;;;;17.35;10.58;;;;;;;9.96;57.50;100147.03;234819;1174;114929;-67
2021/04/12 14:23:57;;;;;;;17.60;10.85;;;;;;;9.95;57.99;100152.58;235147;1174;117116;-70
2021/04/12 14:29:08;;;;;;;14.65;7.73;;;;;;;9.80;58.25;100161.70;235022;1174;115854;-68
2021/04/12 14:34:41;;;;;;;13.70;6.83;;;;;;;9.72;59.03;100175.32;234868;1174;117114;-69
2021/04/12 14:39:45;;;;;;;10.95;8.55;;;;;;;9.58;58.75;100179.11;233327;1174;140450;-69
2021/04/12 14:45:05;;;;;;;11.30;9.47;;;;;;;9.48;58.79;100186.76;233524;1174;115812;-70
2021/04/12 14:50:22;;;;;;;14.18;10.40;;;;;;;9.38;59.06;100195.24;233452;1174;115616;-69
2021/04/12 14:55:37;;;;;;;;;;;;;;;9.25;59.54;100219.26;233048;1170;116424;-69
2021/04/12 15:00:47;;;;;;;9.10;7.30;;;;;;;9.05;60.22;100224.70;233246;1175;103983;-70
2021/04/12 15:05:55;;;;;;;12.80;9.40;;;;;;;8.82;60.42;100227.07;232386;1176;115323;-70
2021/04/12 15:11:07;;;;;;;15.10;9.28;;;;;;;8.78;60.04;100228.52;232427;1175;115897;-70
2021/04/12 15:16:23;;;;;;;15.35;9.15;;;;;;;8.66;60.83;100236.32;232668;1176;116037;-69
2021/04/12 15:21:31;;;;;;;35.15;10.73;;;;;;;8.50;60.30;100244.77;232807;1176;115344;-69
2021/04/12 15:26:51;;;;;;;12.15;9.05;;;;;;;8.44;61.21;100246.41;232728;1175;115872;-68
2021/04/12 15:32:02;;;;;;;9.15;6.63;;;;;;;8.27;60.79;100270.91;232646;1174;115496;-68
2021/04/12 15:37:28;;;;;;;14.45;9.88;;;;;;;8.08;60.99;100284.02;233125;1175;116621;-68
2021/04/12 15:42:37;;;;;;;24.90;13.40;;;;;;;7.91;60.91;100281.98;232749;1171;116430;-69
2021/04/12 15:47:45;;;;;;;11.45;8.05;;;;;;;7.90;61.34;100290.97;232358;1171;116639;-67
2021/04/12 15:52:55;;;;;;;17.30;8.80;;;;;;;7.84;61.71;100292.59;233828;1174;115973;-70
2021/04/12 15:58:04;;;;;;;12.87;9.20;;;;;;;7.76;61.84;100282.98;232606;1174;116405;-70
2021/04/12 16:03:09;;;;;;;16.48;9.93;;;;;;;7.66;62.40;100287.05;232266;1176;117402;-70
2021/04/12 16:08:27;;;;;;;6.68;5.05;;;;;;;7.55;62.03;100293.78;235125;1176;117066;-70
2021/04/12 16:13:45;;;;;;;7.40;5.43;;;;;;;7.41;62.17;100292.11;234580;1174;116841;-69
2021/04/12 16:18:52;;;;;;;8.88;4.90;;;;;;;7.39;62.25;100286.19;234940;1176;115679;-68
2021/04/12 16:24:07;;;;;;;8.65;5.90;;;;;;;7.38;61.86;100298.63;234120;1174;115588;-71
2021/04/12 16:29:49;;;;;;;7.95;6.00;;;;;;;7.27;62.16;100316.98;235132;1174;114879;-71
2021/04/12 16:34:56;;;;;;;7.47;5.87;;;;;;;7.12;62.27;100324.25;234507;1176;115891;-66
2021/04/12 16:40:01;;;;;;;5.93;4.63;;;;;;;6.95;61.96;100324.59;234421;1176;115564;-65
2021/04/12 16:45:22;;;;;;;5.48;4.93;;;;;;;6.87;62.59;100350.43;233511;1175;115287;-67
2021/04/12 16:50:38;;;;;;;6.25;4.55;;;;;;;6.76;62.52;100367.69;233690;1174;116224;-67
2021/04/12 16:56:29;;;;;;;4.93;4.43;;;;;;;6.62;62.14;100360.67;233575;1174;115290;-66
2021/04/12 17:01:49;;;;;;;6.03;4.23;;;;;;;6.46;62.38;100353.83;233326;1177;116896;-71
2021/04/12 17:07:45;;;;;;;4.93;4.13;;;;;;;6.37;62.90;100370.89;233095;1176;116025;-71
2021/04/12 17:12:58;;;;;;;6.17;5.07;;;;;;;6.28;63.40;100367.55;233240;1176;115976;-71
2021/04/12 17:18:26;;;;;;;10.73;5.65;;;;;;;6.21;63.32;100357.91;232528;1176;116312;-70
2021/04/12 17:23:36;;;;;;;6.90;4.48;;;;;;;6.11;63.77;100368.03;233138;1175;116002;-70
2021/04/12 17:28:45;;;;;;;5.40;4.20;;;;;;;6.03;64.20;100368.97;233038;1174;115407;-70
2021/04/12 17:33:57;;;;;;;5.00;2.80;;;;;;;5.91;64.26;100378.41;232916;1174;115530;-68
2021/04/12 17:39:10;;;;;;;10.60;8.28;;;;;;;5.82;64.21;100395.38;233114;1175;115498;-68
2021/04/12 17:44:30;;;;;;;6.43;4.63;;;;;;;5.86;64.23;100412.52;233583;1176;118449;-69
2021/04/12 17:49:49;;;;;;;5.53;4.97;;;;;;;5.82;64.64;100427.94;232381;1170;116465;-68
2021/04/12 17:55:22;;;;;;;7.28;6.15;;;;;;;5.75;64.41;100440.30;233779;1170;116341;-69
2021/04/12 18:00:38;;;;;;;8.30;6.68;;;;;;;5.74;64.75;100449.23;233844;1175;115438;-70
2021/04/12 18:05:53;;;;;;;9.60;5.70;;;;;;;5.60;65.11;100448.25;232465;1175;115127;-70
2021/04/12 18:11:04;;;;;;;7.03;6.43;;;;;;;5.52;64.83;100445.70;234558;1174;116208;-68
2021/04/12 18:16:18;;;;;;;7.37;5.43;;;;;;;5.47;65.67;100448.10;232846;1175;142291;-69
2021/04/12 18:22:03;;;;;;;6.48;5.65;;;;;;;5.42;65.50;100439.89;234929;1174;115266;-70
2021/04/12 18:27:14;;;;;;;6.30;5.55;;;;;;;5.34;66.15;100435.52;234973;1174;114558;-70
2021/04/12 18:32:48;;;;;;;6.33;5.78;;;;;;;5.41;66.11;100451.47;233841;1174;115434;-70
2021/04/12 18:38:06;;;;;;;5.43;4.80;;;;;;;5.36;66.29;100452.02;234019;1174;115077;-70
2021/04/12 18:43:17;;;;;;;5.78;3.60;;;;;;;5.32;66.11;100468.42;233240;1170;115459;-70
2021/04/12 18:49:08;;;;;;;8.40;6.50;;;;;;;5.22;66.62;100481.91;232797;1175;114767;-70
2021/04/12 18:54:30;;;;;;;7.20;5.97;;;;;;;5.21;66.73;100501.41;232656;1177;115189;-73
2021/04/12 18:59:49;;;;;;;7.67;6.23;;;;;;;5.24;66.55;100500.23;232956;1176;115304;-67
2021/04/12 19:05:09;;;;;;;6.95;4.00;;;;;;;5.20;67.64;100491.84;232258;1174;115201;-69
2021/04/12 19:10:20;;;;;;;4.93;4.47;;;;;;;5.06;68.09;100496.13;233609;1176;114794;-70
2021/04/12 19:15:43;;;;;;;4.55;4.15;;;;;;;4.98;68.42;100504.13;232470;1174;116239;-68
2021/04/12 19:21:13;;;;;;;6.83;6.13;;;;;;;4.91;67.94;100492.63;232560;1174;115796;-67
2021/04/12 19:26:23;;;;;;;7.63;4.73;;;;;;;4.84;68.72;100509.39;232764;1176;116533;-68
2021/04/12 19:32:16;;;;;;;6.20;5.10;;;;;;;4.74;68.91;100526.30;232479;1174;115500;-69
2021/04/12 19:37:45;;;;;;;7.53;5.73;;;;;;;4.66;68.70;100528.17;232181;1175;115276;-69
2021/04/12 19:42:53;;;;;;;9.50;7.35;;;;;;;4.59;68.95;100529.87;232951;1176;114477;-68
2021/04/12 19:48:26;;;;;;;4.97;4.47;;;;;;;4.54;68.45;100529.60;233476;1175;115366;-68
2021/04/12 19:54:02;;;;;;;3.13;2.65;;;;;;;4.38;68.84;100525.24;233456;1174;115440;-68
2021/04/12 19:59:37;;;;;;;2.45;2.25;;;;;;;4.20;68.78;100530.81;233251;1176;115442;-68
2021/04/12 20:04:45;;;;;;;2.83;2.63;;;;;;;4.10;68.53;100524.09;234237;1176;115405;-66
2021/04/12 20:09:57;;;;;;;2.67;1.40;;;;;;;3.98;68.73;100521.02;233818;1174;115329;-67
2021/04/12 20:15:10;;;;;;;3.50;2.50;;;;;;;3.89;69.81;100520.25;234045;1174;115074;-66
2021/04/12 20:20:18;;;;;;;4.67;3.17;;;;;;;3.92;69.19;100527.00;235142;1174;115010;-66
2021/04/12 20:25:36;;;;;;;2.80;2.03;;;;;;;3.94;69.27;100536.39;234990;1176;115580;-69
2021/04/12 20:30:49;;;;;;;3.70;3.27;;;;;;;3.84;69.24;100529.67;235049;1175;115280;-68
2021/04/12 20:36:09;;;;;;;3.55;3.25;;;;;;;3.82;69.01;100531.66;234356;1174;115022;-65
2021/04/12 20:41:40;;;;;;;3.25;2.80;;;;;;;3.90;69.11;100534.27;234720;1175;114912;-69
2021/04/12 20:46:53;;;;;;;7.93;4.95;;;;;;;3.92;68.81;100537.55;233649;1174;114863;-66
2021/04/12 20:52:19;;;;;;;4.97;4.50;;;;;;;3.89;68.96;100527.34;233453;1174;114781;-66
2021/04/12 20:57:28;;;;;;;9.57;6.57;;;;;;;3.87;69.85;100534.61;232763;1176;115285;-69
2021/04/12 21:02:55;;;;;;;9.63;6.13;;;;;;;3.86;69.61;100540.88;232390;1174;115417;-68
2021/04/12 21:08:28;;;;;;;6.65;4.85;;;;;;;3.81;69.38;100566.93;233155;1174;115727;-67
2021/04/12 21:13:39;;;;;;;6.93;5.33;;;;;;;3.75;69.69;100586.89;233373;1174;114503;-69
2021/04/12 21:18:44;;;;;;;6.13;4.85;;;;;;;3.72;69.87;100593.32;232709;1175;115131;-70
2021/04/12 21:24:02;;;;;;;5.90;4.50;;;;;;;3.71;69.73;100577.67;233295;1174;115135;-67
2021/04/12 21:29:26;;;;;;;6.37;5.70;;;;;;;3.75;70.00;100583.43;232494;1176;116127;-71
2021/04/12 21:34:36;;;;;;;5.10;3.97;;;;;;;3.74;69.38;100587.88;232882;1174;114554;-68
2021/04/12 21:39:44;;;;;;;3.53;2.58;;;;;;;3.67;69.64;100593.00;232522;1174;115091;-66
2021/04/12 21:44:53;;;;;;;6.05;3.53;;;;;;;3.68;69.97;100599.92;232926;1175;115424;-66
2021/04/12 21:50:02;;;;;;;3.30;1.90;;;;;;;3.68;69.53;100613.11;233133;1169;114800;-65
2021/04/12 21:55:35;;;;;;;4.05;2.00;;;;;;;3.63;69.60;100607.54;232633;1175;115104;-67
2021/04/12 22:00:45;;;;;;;1.50;1.40;;;;;;;3.61;69.61;100601.61;232614;1174;116206;-69
2021/04/12 22:06:11;;;;;;;4.73;2.27;;;;;;;3.58;69.16;100614.30;234412;1174;115678;-68
2021/04/12 22:12:02;;;;;;;1.58;1.55;;;;;;;3.55;69.27;100623.36;233446;1174;115224;-67
2021/04/12 22:17:33;;;;;;;3.48;2.73;;;;;;;3.52;70.01;100641.33;233674;1174;115152;-68
2021/04/12 22:22:38;;;;;;;4.78;3.23;;;;;;;3.53;69.45;100638.52;233176;1175;114917;-68
2021/04/12 22:27:48;;;;;;;6.70;3.60;;;;;;;3.57;69.46;100641.66;233900;1175;115609;-66
2021/04/12 22:43:47;;;;;;;3.43;2.78;;;;;;;3.51;70.27;100635.23;233587;1174;115932;-66
2021/04/12 22:48:51;;;;;;;5.20;2.85;;;;;;;3.51;69.64;100635.23;233187;1174;115739;-67
2021/04/12 22:54:13;;;;;;;3.20;2.90;;;;;;;3.47;69.93;100623.37;233484;1174;115939;-65
2021/04/12 22:59:21;;;;;;;2.78;2.43;;;;;;;3.42;70.92;100623.05;232811;1170;117114;-63
2021/04/12 23:04:42;;;;;;;3.90;2.00;;;;;;;3.35;70.12;100617.64;233492;1174;114840;-65
2021/04/12 23:09:59;;;;;;;4.63;3.68;;;;;;;3.30;70.34;100625.22;233919;1174;114790;-65
2021/04/12 23:15:10;;;;;;;3.50;2.70;;;;;;;3.26;70.41;100625.70;233218;1174;114990;-63
2021/04/12 23:20:14;;;;;;;4.37;2.63;;;;;;;3.14;70.29;100621.75;232929;1176;115866;-65
2021/04/12 23:25:24;;;;;;;6.17;2.83;;;;;;;3.07;71.78;100618.94;232741;1176;114970;-64
2021/04/12 23:30:38;;;;;;;3.70;3.37;;;;;;;3.01;71.13;100623.08;232443;1175;115509;-67
2021/04/12 23:35:44;;;;;;;3.50;3.20;;;;;;;3.00;71.48;100624.06;232700;1175;114741;-64
2021/04/12 23:41:04;;;;;;;4.05;3.75;;;;;;;3.04;71.08;100632.47;232760;1175;115524;-63
2021/04/12 23:46:11;;;;;;;2.80;2.38;;;;;;;3.01;71.70;100628.34;232495;1177;115829;-64
2021/04/12 23:51:28;;;;;;;3.90;3.60;;;;;;;2.99;72.01;100630.32;232594;1175;115090;-64
2021/04/12 23:56:44;;;;;;;3.73;3.03;;;;;;;2.92;71.72;100650.39;233763;1175;114891;-63
